Time;durP1;ratioP1;P1;durP2;ratioP2;P2;SDS_P1;SDS_P2;PMS_P1;PMS_P2;Temp;Humidity;BMP_temperature;BMP_pressure;BME280_temperature;BME280_humidity;BME280_pressure;Samples;Min_cycle;Max_cycle;Signal;HPM_P1;HPM_P2
2023/05/29 00:04:25;;;;;;;;;;;;;;;11.05;100.00;97578.56;18562526;32;19952;-57
2023/05/29 00:14:27;;;;;;;;;;;;;;;10.92;100.00;97589.97;18562030;32;19968;-58
2023/05/29 00:24:30;;;;;;;;;;;;;;;10.79;100.00;97591.34;18561479;32;19968;-57
2023/05/29 00:34:32;;;;;;;;;;;;;;;10.65;100.00;97591.13;18561091;32;19956;-57
2023/05/29 00:44:36;;;;;;;;;;;;;;;10.49;100.00;97593.00;18560960;32;19960;-57
2023/05/29 00:54:38;;;;;;;;;;;;;;;10.40;100.00;97595.47;18562970;32;19967;-57
2023/05/29 01:04:41;;;;;;;;;;;;;;;10.25;100.00;97598.09;18573515;32;19959;-57
2023/05/29 01:14:55;;;;;;;;;;;;;;;10.13;100.00;97595.69;18572824;32;19952;-57
2023/05/29 01:24:57;;;;;;;;;;;;;;;9.99;100.00;97598.91;18572076;32;20273;-57
2023/05/29 01:35:00;;;;;;;;;;;;;;;9.84;100.00;97594.28;18571392;32;20336;-57
2023/05/29 01:45:05;;;;;;;;;;;;;;;9.76;100.00;97588.59;18570897;32;19960;-59
2023/05/29 01:55:08;;;;;;;;;;;;;;;9.65;100.00;97588.56;18570508;32;19975;-59
2023/05/29 02:05:10;;;;;;;;;;;;;;;9.60;100.00;97604.72;18568934;31;20033;-60
2023/05/29 02:15:13;;;;;;;;;;;;;;;9.55;100.00;97601.22;18569339;32;19953;-60
2023/05/29 02:25:15;;;;;;;;;;;;;;;9.45;100.00;97604.69;18568403;32;20328;-60
2023/05/29 02:35:20;;;;;;;;;;;;;;;9.31;100.00;97596.28;18567666;32;19956;-60
2023/05/29 02:45:23;;;;;;;;;;;;;;;9.22;100.00;97597.84;18567602;32;19956;-60
2023/05/29 02:55:25;;;;;;;;;;;;;;;9.09;100.00;97597.25;18566799;32;19953;-60
2023/05/29 03:05:28;;;;;;;;;;;;;;;9.02;100.00;97599.38;18551992;32;20360;-60
2023/05/29 03:15:30;;;;;;;;;;;;;;;8.94;100.00;97608.75;18565974;32;19952;-59
2023/05/29 03:25:32;;;;;;;;;;;;;;;8.88;100.00;97590.94;18564294;32;19957;-59
2023/05/29 03:35:35;;;;;;;;;;;;;;;8.79;100.00;97605.97;18564044;32;19953;-60
2023/05/29 03:45:38;;;;;;;;;;;;;;;8.69;100.00;97601.34;18563518;32;19956;-59
2023/05/29 03:55:41;;;;;;;;;;;;;;;8.64;100.00;97593.22;18563313;31;20000;-60
2023/05/29 04:05:44;;;;;;;;;;;;;;;8.67;100.00;97608.84;18548315;32;19952;-60
2023/05/29 04:15:47;;;;;;;;;;;;;;;8.73;100.00;97607.00;18548206;32;19985;-59
2023/05/29 04:25:52;;;;;;;;;;;;;;;8.76;100.00;97622.69;18562048;32;19961;-59
2023/05/29 04:35:55;;;;;;;;;;;;;;;8.88;100.00;97635.94;18546660;32;20010;-60
2023/05/29 04:45:58;;;;;;;;;;;;;;;9.07;100.00;97642.56;18546787;32;20237;-60
2023/05/29 04:56:00;;;;;;;;;;;;;;;9.30;100.00;97656.69;18560893;32;19968;-60
2023/05/29 05:06:04;;;;;;;;;;;;;;;9.57;100.00;97669.25;18560481;32;19997;-60
2023/05/29 05:16:06;;;;;;;;;;;;;;;9.87;100.00;97679.34;18560290;32;20298;-59
2023/05/29 05:26:09;;;;;;;;;;;;;;;10.17;100.00;97667.81;18559560;32;19953;-59
2023/05/29 05:36:11;;;;;;;;;;;;;;;10.55;100.00;97677.63;18544851;32;20000;-60
2023/05/29 05:46:14;;;;;;;;;;;;;;;10.98;100.00;97684.37;18551850;31;19953;-60
2023/05/29 05:56:16;;;;;;;;;;;;;;;11.43;100.00;97689.16;18570457;32;19983;-60
2023/05/29 06:06:19;;;;;;;;;;;;;;;11.93;100.00;97700.09;18569774;32;20302;-59
2023/05/29 06:16:22;;;;;;;;;;;;;;;12.56;100.00;97718.47;18569128;32;20306;-60
2023/05/29 06:26:25;;;;;;;;;;;;;;;13.25;100.00;97723.09;18569032;32;20015;-59
2023/05/29 06:36:27;;;;;;;;;;;;;;;13.94;100.00;97717.50;18567662;32;19957;-60
2023/05/29 06:46:30;;;;;;;;;;;;;;;14.57;100.00;97725.34;18553163;32;19952;-59
2023/05/29 06:56:33;;;;;;;;;;;;;;;15.08;100.00;97725.66;18552247;32;19975;-60
2023/05/29 07:06:36;;;;;;;;;;;;;;;15.60;100.00;97733.75;18565914;32;19960;-59
2023/05/29 07:16:40;;;;;;;;;;;;;;;15.97;100.00;97745.59;18565343;32;19991;-60
2023/05/29 07:26:43;;;;;;;;;;;;;;;16.42;100.00;97747.69;18564848;32;19985;-57
2023/05/29 07:37:00;;;;;;;;;;;;;;;16.96;100.00;97741.56;18564083;32;20024;-57
2023/05/29 07:47:05;;;;;;;;;;;;;;;17.33;100.00;97748.56;18563676;32;19984;-57
2023/05/29 07:57:09;;;;;;;;;;;;;;;17.75;100.00;97770.19;18549142;32;19984;-57
2023/05/29 08:07:12;;;;;;;;;;;;;;;18.13;100.00;97764.25;18561993;32;19957;-57
2023/05/29 08:17:14;;;;;;;;;;;;;;;18.47;96.28;97773.66;18562358;32;19953;-57
2023/05/29 08:27:19;;;;;;;;;;;;;;;18.71;95.66;97770.47;18561592;32;19960;-57
2023/05/29 08:37:22;;;;;;;;;;;;;;;19.12;86.33;97762.94;18560831;32;19945;-57
2023/05/29 08:47:26;;;;;;;;;;;;;;;19.48;89.29;97773.50;18560869;32;20029;-57
2023/05/29 08:57:30;;;;;;;;;;;;;;;19.84;83.66;97768.75;18546671;32;19971;-57
2023/05/29 09:07:38;;;;;;;;;;;;;;;20.27;79.85;97778.72;18560612;32;20000;-57
2023/05/29 09:17:44;;;;;;;;;;;;;;;20.65;76.81;97779.78;18563485;32;20321;-57
2023/05/29 09:27:52;;;;;;;;;;;;;;;20.96;71.53;97790.41;18571807;31;19967;-57
2023/05/29 09:37:57;;;;;;;;;;;;;;;21.11;64.97;97778.00;18571366;32;19992;-57
2023/05/29 09:48:00;;;;;;;;;;;;;;;21.65;69.24;97779.94;18571152;32;19956;-57
2023/05/29 09:58:05;;;;;;;;;;;;;;;22.10;66.83;97770.00;18570256;32;19974;-57
2023/05/29 10:08:11;;;;;;;;;;;;;;;22.32;55.50;97771.50;18569655;32;19968;-57
2023/05/29 10:18:22;;;;;;;;;;;;;;;22.73;60.44;97762.53;18569302;32;19960;-57
2023/05/29 10:28:26;;;;;;;;;;;;;;;22.99;55.75;97760.13;18568176;32;19981;-57
2023/05/29 10:38:31;;;;;;;;;;;;;;;23.56;58.62;97748.28;18553953;32;19985;-57
2023/05/29 10:48:37;;;;;;;;;;;;;;;23.96;55.28;97725.28;18567548;32;19972;-57
2023/05/29 10:58:41;;;;;;;;;;;;;;;24.54;54.81;97719.09;18552426;32;20016;-57
2023/05/29 11:08:48;;;;;;;;;;;;;;;24.79;52.24;97719.69;18565995;32;20007;-57
2023/05/29 11:19:22;;;;;;;;;;;;;;;25.20;50.83;97731.16;18565200;32;20265;-57
2023/05/29 11:29:26;;;;;;;;;;;;;;;25.39;48.08;97721.25;18298173;32;19999;-57
2023/05/29 11:39:30;;;;;;;;;;;;;;;25.91;47.83;97718.97;18297043;32;20025;-57
2023/05/29 11:49:35;;;;;;;;;;;;;;;26.16;46.97;97713.06;18296923;32;20003;-57
2023/05/29 11:59:38;;;;;;;;;;;;;;;26.68;43.68;97703.09;18351914;32;19960;-57
2023/05/29 12:09:42;;;;;;;;;;;;;;;27.04;51.97;97692.47;18562440;31;19956;-57
2023/05/29 12:19:47;;;;;;;;;;;;;;;27.49;40.89;97694.53;18562201;32;20007;-57
2023/05/29 12:29:59;;;;;;;;;;;;;;;27.51;43.66;97675.50;18561379;31;20238;-57
2023/05/29 12:40:15;;;;;;;;;;;;;;;28.21;44.44;97682.03;18561098;31;19964;-57
2023/05/29 12:50:24;;;;;;;;;;;;;;;28.67;43.51;97677.94;18562518;32;20008;-57
2023/05/29 13:00:27;;;;;;;;;;;;;;;29.05;40.25;97670.13;18574017;32;19989;-57
2023/05/29 13:10:31;;;;;;;;;;;;;;;29.64;37.05;97671.81;18573009;32;19964;-56
2023/05/29 13:20:36;;;;;;;;;;;;;;;29.83;36.35;97678.19;18572699;32;19970;-56
2023/05/29 13:30:40;;;;;;;;;;;;;;;29.80;34.73;97674.22;18572060;31;19948;-57
2023/05/29 13:40:44;;;;;;;;;;;;;;;30.34;34.58;97654.66;18557017;32;20327;-57
2023/05/29 13:50:47;;;;;;;;;;;;;;;31.15;34.04;97644.75;18571106;32;19956;-57
2023/05/29 14:00:51;;;;;;;;;;;;;;;31.23;36.26;97643.50;18569696;31;19948;-57
2023/05/29 14:10:56;;;;;;;;;;;;;;;32.04;33.99;97640.50;18569365;32;19975;-56
2023/05/29 14:21:01;;;;;;;;;;;;;;;32.43;29.28;97625.28;18554684;32;20318;-57
2023/05/29 14:31:05;;;;;;;;;;;;;;;32.87;28.52;97617.16;18568567;31;19969;-57
2023/05/29 14:41:08;;;;;;;;;;;;;;;32.99;27.10;97609.44;18568080;32;19960;-57
2023/05/29 14:51:12;;;;;;;;;;;;;;;33.18;29.58;97605.13;18553308;32;20260;-56
2023/05/29 15:01:16;;;;;;;;;;;;;;;31.94;26.15;97607.81;18552223;32;19952;-55
2023/05/29 15:11:19;;;;;;;;;;;;;;;30.23;29.93;97590.53;18566065;32;19956;-56
2023/05/29 15:21:23;;;;;;;;;;;;;;;29.56;28.91;97586.63;18551969;32;20012;-56
2023/05/29 15:31:26;;;;;;;;;;;;;;;28.97;31.00;97590.59;18564488;31;20242;-55
2023/05/29 15:41:31;;;;;;;;;;;;;;;27.98;35.88;97584.97;18549926;32;20328;-56
2023/05/29 15:51:40;;;;;;;;;;;;;;;27.80;36.13;97575.75;18563253;32;20264;-56
2023/05/29 16:01:43;;;;;;;;;;;;;;;27.80;38.88;97567.41;18562856;32;20284;-55
2023/05/29 16:11:48;;;;;;;;;;;;;;;27.07;38.47;97557.72;18562240;32;19964;-56
2023/05/29 16:21:52;;;;;;;;;;;;;;;27.21;36.25;97557.03;18561734;32;19991;-55
2023/05/29 16:31:55;;;;;;;;;;;;;;;26.61;31.77;97569.87;18560958;32;19993;-54
2023/05/29 16:41:58;;;;;;;;;;;;;;;26.41;31.23;97555.41;18546864;32;20284;-56
2023/05/29 16:52:01;;;;;;;;;;;;;;;26.80;34.35;97568.16;18560842;32;20257;-56
2023/05/29 17:02:06;;;;;;;;;;;;;;;26.30;33.37;97562.78;18546542;32;20268;-56
2023/05/29 17:12:12;;;;;;;;;;;;;;;25.73;35.61;97554.50;18560311;32;20012;-54
2023/05/29 17:22:15;;;;;;;;;;;;;;;25.19;31.95;97554.44;18559973;32;19956;-56
2023/05/29 17:32:20;;;;;;;;;;;;;;;24.73;32.81;97559.97;18559283;31;20343;-55
2023/05/29 17:42:25;;;;;;;;;;;;;;;24.63;33.11;97570.44;18566896;31;20407;-55
2023/05/29 17:52:32;;;;;;;;;;;;;;;24.37;32.06;97560.84;18556644;32;19969;-54
2023/05/29 18:02:36;;;;;;;;;;;;;;;24.55;33.98;97576.97;18570247;32;19952;-56
2023/05/29 18:12:40;;;;;;;;;;;;;;;26.97;26.62;97598.06;18542503;32;19989;-55
2023/05/29 18:22:47;;;;;;;;;;;;;;;25.11;29.66;97588.69;18569153;32;19956;-55
2023/05/29 18:32:53;;;;;;;;;;;;;;;23.77;32.86;97597.00;18568075;31;19948;-55
2023/05/29 18:42:57;;;;;;;;;;;;;;;22.99;33.73;97605.72;18553366;32;19948;-55
2023/05/29 18:53:01;;;;;;;;;;;;;;;22.37;33.32;97607.97;18566869;32;19964;-55
2023/05/29 19:03:03;;;;;;;;;;;;;;;21.93;35.36;97618.84;18552658;32;19953;-54
2023/05/29 19:13:07;;;;;;;;;;;;;;;21.48;35.83;97626.03;18565840;32;19961;-55
2023/05/29 19:23:10;;;;;;;;;;;;;;;20.88;38.00;97634.62;18565301;32;19967;-56
2023/05/29 19:33:13;;;;;;;;;;;;;;;20.56;39.70;97649.97;18564210;32;19987;-56
2023/05/29 19:43:16;;;;;;;;;;;;;;;20.08;40.77;97665.81;18564218;32;19952;-55
2023/05/29 19:53:19;;;;;;;;;;;;;;;19.58;44.15;97681.88;18563654;32;19952;-56
2023/05/29 20:03:22;;;;;;;;;;;;;;;19.21;46.67;97689.72;18562350;32;19953;-56
2023/05/29 20:13:26;;;;;;;;;;;;;;;18.79;50.13;97705.88;18548273;32;19965;-56
2023/05/29 20:23:29;;;;;;;;;;;;;;;18.23;57.07;97720.16;18561680;31;19971;-56
2023/05/29 20:33:32;;;;;;;;;;;;;;;17.71;61.30;97719.97;18561129;31;19967;-56
2023/05/29 20:43:37;;;;;;;;;;;;;;;17.20;67.64;97725.69;18561113;32;19953;-55
2023/05/29 20:53:42;;;;;;;;;;;;;;;16.74;76.02;97730.28;18547600;32;19975;-55
2023/05/29 21:03:45;;;;;;;;;;;;;;;16.33;84.33;97744.06;18560642;32;19952;-55
2023/05/29 21:13:48;;;;;;;;;;;;;;;15.91;88.29;97744.09;18565287;32;19996;-55
2023/05/29 21:23:54;;;;;;;;;;;;;;;15.55;96.90;97745.56;18572736;32;20354;-54
2023/05/29 21:33:56;;;;;;;;;;;;;;;15.23;100.00;97746.41;18571929;32;19961;-55
2023/05/29 21:44:00;;;;;;;;;;;;;;;14.88;100.00;97746.69;18557862;32;20324;-55
2023/05/29 21:54:02;;;;;;;;;;;;;;;14.56;100.00;97753.63;18556725;32;19989;-55
2023/05/29 22:04:06;;;;;;;;;;;;;;;14.26;100.00;97751.34;18570286;32;19953;-55
2023/05/29 22:14:09;;;;;;;;;;;;;;;14.02;100.00;97760.34;18569334;31;19983;-56
2023/05/29 22:24:11;;;;;;;;;;;;;;;13.77;100.00;97756.81;18568497;32;19979;-55
2023/05/29 22:34:14;;;;;;;;;;;;;;;13.51;100.00;97754.38;18568721;32;19983;-56
2023/05/29 22:44:17;;;;;;;;;;;;;;;13.27;100.00;97754.28;18553531;32;19960;-56
2023/05/29 22:54:20;;;;;;;;;;;;;;;13.04;100.00;97748.50;18553242;32;19971;-55
2023/05/29 23:04:23;;;;;;;;;;;;;;;12.82;100.00;97750.84;18566669;32;19953;-56
2023/05/29 23:14:25;;;;;;;;;;;;;;;12.64;100.00;97742.28;18566073;32;19975;-56
2023/05/29 23:24:27;;;;;;;;;;;;;;;12.47;100.00;97752.69;18565478;32;19996;-55
2023/05/29 23:34:30;;;;;;;;;;;;;;;12.32;100.00;97745.47;18563601;32;20345;-55
2023/05/29 23:44:32;;;;;;;;;;;;;;;12.12;100.00;97741.78;18563967;32;20008;-55
2023/05/29 23:54:35;;;;;;;;;;;;;;;11.95;100.00;97739.41;18563586;32;20033;-55
